Time;durP1;ratioP1;P1;durP2;ratioP2;P2;SDS_P1;SDS_P2;PMS_P1;PMS_P2;Temp;Humidity;BMP_temperature;BMP_pressure;BME280_temperature;BME280_humidity;BME280_pressure;Samples;Min_cycle;Max_cycle;Signal;HPM_P1;HPM_P2
2023/03/08 00:02:18;;;;;;;;;;;;;;;20.66;45.04;99270.34;4955889;28;4240;-60
2023/03/08 00:04:44;;;;;;;;;;;;;;;20.66;45.15;99273.97;4958157;28;4095;-60
2023/03/08 00:07:11;;;;;;;;;;;;;;;20.68;45.22;99276.13;4958278;28;4080;-60
2023/03/08 00:09:37;;;;;;;;;;;;;;;20.72;45.29;99276.22;4957935;28;4362;-61
2023/03/08 00:12:03;;;;;;;;;;;;;;;20.72;45.13;99279.09;4955765;28;4536;-58
2023/03/08 00:14:30;;;;;;;;;;;;;;;20.72;45.12;99287.72;4953293;28;4148;-60
2023/03/08 00:16:56;;;;;;;;;;;;;;;20.72;45.11;99281.97;4956056;28;4462;-60
2023/03/08 00:19:22;;;;;;;;;;;;;;;20.69;45.18;99283.38;4957874;28;5351;-61
2023/03/08 00:21:49;;;;;;;;;;;;;;;20.72;45.07;99299.22;4957101;28;4236;-61
2023/03/08 00:24:16;;;;;;;;;;;;;;;20.74;45.14;99296.41;4958304;28;3899;-60
2023/03/08 00:26:42;;;;;;;;;;;;;;;20.75;44.94;99297.13;4957006;28;4156;-60
2023/03/08 00:29:09;;;;;;;;;;;;;;;20.74;44.93;99295.69;4938435;28;4305;-60
2023/03/08 00:31:35;;;;;;;;;;;;;;;20.74;45.09;99296.41;4956085;28;6371;-60
2023/03/08 00:34:02;;;;;;;;;;;;;;;20.72;45.07;99299.22;4958772;28;5286;-60
2023/03/08 00:36:28;;;;;;;;;;;;;;;20.71;44.94;99297.78;4953311;28;4313;-61
2023/03/08 00:38:55;;;;;;;;;;;;;;;20.71;45.04;99295.63;4954861;28;5449;-61
2023/03/08 00:41:21;;;;;;;;;;;;;;;20.71;44.89;99312.16;4957461;28;4187;-60
2023/03/08 00:43:47;;;;;;;;;;;;;;;20.71;44.89;99312.91;4950364;28;4199;-60
2023/03/08 00:46:14;;;;;;;;;;;;;;;20.73;44.83;99306.47;4957905;28;4205;-61
2023/03/08 00:48:40;;;;;;;;;;;;;;;20.73;45.02;99306.47;4958015;28;4153;-61
2023/03/08 00:51:07;;;;;;;;;;;;;;;20.74;45.19;99304.31;4939851;29;4199;-60
2023/03/08 00:53:33;;;;;;;;;;;;;;;20.74;44.90;99312.94;4942193;28;5416;-61
2023/03/08 00:56:00;;;;;;;;;;;;;;;20.74;44.96;99318.69;4946453;28;5239;-60
2023/03/08 00:58:29;;;;;;;;;;;;;;;20.74;44.95;99312.94;4945181;28;4295;-60
2023/03/08 01:00:55;;;;;;;;;;;;;;;20.73;45.05;99312.22;4926423;28;5326;-60
2023/03/08 01:03:22;;;;;;;;;;;;;;;20.73;44.95;99320.84;4923749;29;4234;-60
2023/03/08 01:05:49;;;;;;;;;;;;;;;20.71;44.98;99321.53;4945295;28;5299;-60
2023/03/08 01:08:15;;;;;;;;;;;;;;;20.71;44.93;99329.44;4932835;29;4136;-60
2023/03/08 01:10:48;;;;;;;;;;;;;;;20.70;45.14;99327.94;4951498;28;4199;-60
2023/03/08 01:13:15;;;;;;;;;;;;;;;20.69;45.17;99332.97;4928025;28;3974;-60
2023/03/08 01:15:42;;;;;;;;;;;;;;;20.68;44.93;99328.66;4946542;28;4332;-60
2023/03/08 01:18:08;;;;;;;;;;;;;;;20.68;44.84;99333.66;4938180;28;4437;-60
2023/03/08 01:20:35;;;;;;;;;;;;;;;20.69;44.97;99323.63;4944251;28;4230;-60
2023/03/08 01:23:01;;;;;;;;;;;;;;;20.69;44.93;99329.38;4931930;29;6411;-60
2023/03/08 01:25:28;;;;;;;;;;;;;;;20.69;44.84;99329.38;4951655;28;4166;-60
2023/03/08 01:27:55;;;;;;;;;;;;;;;20.70;44.89;99337.31;4946570;28;4141;-60
2023/03/08 01:30:22;;;;;;;;;;;;;;;20.71;44.95;99332.31;4932045;29;5234;-60
2023/03/08 01:32:48;;;;;;;;;;;;;;;20.71;44.94;99349.56;4948787;29;5249;-60
2023/03/08 01:35:15;;;;;;;;;;;;;;;20.71;44.88;99343.81;4949152;29;4374;-60
2023/03/08 01:37:41;;;;;;;;;;;;;;;20.70;44.83;99339.47;4941580;28;4911;-60
2023/03/08 01:40:08;;;;;;;;;;;;;;;20.70;44.74;99348.09;4950229;28;4116;-61
2023/03/08 01:42:36;;;;;;;;;;;;;;;20.70;44.89;99342.34;4949265;29;4217;-60
2023/03/08 01:45:03;;;;;;;;;;;;;;;20.68;44.89;99339.41;4949391;29;5245;-60
2023/03/08 01:47:32;;;;;;;;;;;;;;;20.67;44.78;99337.97;4945547;28;4229;-60
2023/03/08 01:50:17;;;;;;;;;;;;;;;20.66;44.75;99342.25;4952334;28;3955;-60
2023/03/08 01:52:48;;;;;;;;;;;;;;;20.64;44.88;99342.94;4950246;28;5267;-60
2023/03/08 01:55:14;;;;;;;;;;;;;;;20.65;44.81;99344.41;4951071;28;4965;-60
2023/03/08 01:57:42;;;;;;;;;;;;;;;20.64;44.91;99348.69;4941883;28;4495;-60
2023/03/08 02:00:09;;;;;;;;;;;;;;;20.65;44.84;99347.28;4949366;28;4227;-59
2023/03/08 02:02:40;;;;;;;;;;;;;;;20.65;44.78;99340.78;4961483;28;4888;-59
2023/03/08 02:05:07;;;;;;;;;;;;;;;20.66;45.14;99348.00;4924845;28;5254;-59
2023/03/08 02:07:33;;;;;;;;;;;;;;;20.66;44.89;99342.25;4947903;28;4544;-60
2023/03/08 02:10:00;;;;;;;;;;;;;;;20.66;44.74;99336.50;4964913;28;4038;-59
2023/03/08 02:12:27;;;;;;;;;;;;;;;20.67;44.68;99337.97;4948831;28;5254;-59
2023/03/08 02:14:53;;;;;;;;;;;;;;;20.66;44.87;99336.50;4960104;28;5413;-59
2023/03/08 02:17:21;;;;;;;;;;;;;;;20.66;44.86;99336.50;4950382;28;4258;-60
2023/03/08 02:19:50;;;;;;;;;;;;;;;20.64;44.93;99340.06;4940128;28;4159;-60
2023/03/08 02:22:16;;;;;;;;;;;;;;;20.63;44.81;99335.72;4946149;28;4428;-59
2023/03/08 02:24:44;;;;;;;;;;;;;;;20.64;44.84;99345.09;4963245;28;5385;-59
2023/03/08 02:27:16;;;;;;;;;;;;;;;20.63;44.81;99352.25;4957520;28;4414;-59
2023/03/08 02:29:42;;;;;;;;;;;;;;;20.63;44.79;99346.50;4941669;28;4191;-59
2023/03/08 02:32:08;;;;;;;;;;;;;;;20.61;44.80;99352.22;4957962;28;4129;-60
2023/03/08 02:34:35;;;;;;;;;;;;;;;20.62;44.80;99353.69;4960179;28;4153;-59
2023/03/08 02:37:01;;;;;;;;;;;;;;;20.61;44.88;99361.56;4947757;28;5302;-59
2023/03/08 02:39:27;;;;;;;;;;;;;;;20.62;44.63;99356.56;4960559;28;4083;-59
2023/03/08 02:41:54;;;;;;;;;;;;;;;20.63;44.74;99360.88;4958904;28;5636;-59
2023/03/08 02:44:20;;;;;;;;;;;;;;;20.63;44.77;99360.88;4958278;28;4200;-59
2023/03/08 02:46:46;;;;;;;;;;;;;;;20.64;44.78;99362.34;4957021;28;5107;-59
2023/03/08 02:49:13;;;;;;;;;;;;;;;20.62;44.87;99360.16;4941873;28;4170;-59
2023/03/08 02:51:40;;;;;;;;;;;;;;;20.64;44.83;99362.34;4959521;28;4175;-59
2023/03/08 02:54:06;;;;;;;;;;;;;;;20.64;45.03;99350.84;4958120;28;4142;-60
2023/03/08 02:56:33;;;;;;;;;;;;;;;20.62;44.85;99360.16;4947377;28;4261;-59
2023/03/08 02:58:59;;;;;;;;;;;;;;;20.62;44.86;99359.44;4954161;28;3976;-59
2023/03/08 03:01:25;;;;;;;;;;;;;;;20.61;44.77;99352.94;4938357;28;4264;-59
2023/03/08 03:03:52;;;;;;;;;;;;;;;20.59;44.72;99355.03;4954497;28;4445;-60
2023/03/08 03:06:19;;;;;;;;;;;;;;;20.58;44.69;99354.31;4957610;28;4114;-60
2023/03/08 03:08:49;;;;;;;;;;;;;;;20.59;44.78;99360.78;4933234;28;4061;-59
2023/03/08 03:11:17;;;;;;;;;;;;;;;20.58;44.75;99353.59;4945774;28;5427;-60
2023/03/08 03:13:46;;;;;;;;;;;;;;;20.57;44.85;99357.88;4935038;28;5431;-60
2023/03/08 03:16:14;;;;;;;;;;;;;;;20.57;44.73;99352.88;4948426;28;4200;-60
2023/03/08 03:18:41;;;;;;;;;;;;;;;20.58;44.75;99353.59;4944697;28;4370;-59
2023/03/08 03:21:08;;;;;;;;;;;;;;;20.58;44.99;99354.31;4955226;28;4146;-60
2023/03/08 03:23:34;;;;;;;;;;;;;;;20.58;44.71;99353.59;4961615;28;5328;-59
2023/03/08 03:26:05;;;;;;;;;;;;;;;20.61;44.82;99363.72;4942196;28;4180;-60
2023/03/08 03:28:32;;;;;;;;;;;;;;;20.59;44.92;99361.53;4944513;28;4041;-59
2023/03/08 03:31:00;;;;;;;;;;;;;;;20.60;44.79;99365.13;4951700;28;6334;-60
2023/03/08 03:33:27;;;;;;;;;;;;;;;20.60;44.65;99376.66;4937776;28;4128;-60
2023/03/08 03:35:53;;;;;;;;;;;;;;;20.59;44.82;99372.28;4938010;28;4144;-59
2023/03/08 03:38:20;;;;;;;;;;;;;;;20.60;44.78;99376.66;4939130;28;4165;-60
2023/03/08 03:40:47;;;;;;;;;;;;;;;20.60;44.72;99374.50;4949350;28;4182;-60
2023/03/08 03:43:14;;;;;;;;;;;;;;;20.61;44.71;99383.84;4960105;28;4231;-60
2023/03/08 03:45:41;;;;;;;;;;;;;;;20.61;44.78;99380.97;4947464;28;5255;-60
2023/03/08 03:48:07;;;;;;;;;;;;;;;20.61;44.64;99389.59;4954304;28;4028;-59
2023/03/08 03:50:34;;;;;;;;;;;;;;;20.61;44.90;99383.84;4945939;28;4110;-60
2023/03/08 03:53:06;;;;;;;;;;;;;;;20.61;44.68;99381.69;4938390;28;4022;-60
2023/03/08 03:55:32;;;;;;;;;;;;;;;20.61;44.73;99387.44;4939765;28;4028;-61
2023/03/08 03:58:01;;;;;;;;;;;;;;;20.62;44.75;99379.56;4950360;28;4201;-59
2023/03/08 04:00:29;;;;;;;;;;;;;;;20.63;44.66;99386.75;4963686;28;4057;-60
2023/03/08 04:03:07;;;;;;;;;;;;;;;20.63;44.73;99389.63;4941109;28;4047;-59
2023/03/08 04:05:35;;;;;;;;;;;;;;;20.63;44.90;99390.38;4945604;28;4046;-60
2023/03/08 04:08:02;;;;;;;;;;;;;;;20.63;44.60;99401.16;4953545;28;4205;-59
2023/03/08 04:10:32;;;;;;;;;;;;;;;20.61;44.73;99386.72;4944949;28;4115;-60
2023/03/08 04:12:58;;;;;;;;;;;;;;;20.61;44.77;99395.34;4944043;28;4151;-60
2023/03/08 04:15:25;;;;;;;;;;;;;;;20.60;44.68;99396.78;4954322;28;3966;-60
2023/03/08 04:17:52;;;;;;;;;;;;;;;20.60;44.71;99400.38;4931887;28;4343;-60
2023/03/08 04:20:21;;;;;;;;;;;;;;;20.59;44.72;99396.03;4963111;28;4065;-59
2023/03/08 04:22:53;;;;;;;;;;;;;;;20.59;44.93;99401.81;4956698;28;4430;-60
2023/03/08 04:25:26;;;;;;;;;;;;;;;20.58;44.88;99399.59;4944045;28;4264;-60
2023/03/08 04:27:57;;;;;;;;;;;;;;;20.58;44.78;99399.59;4943524;28;4296;-60
2023/03/08 04:30:23;;;;;;;;;;;;;;;20.58;44.99;99393.84;4947329;28;4194;-60
2023/03/08 04:32:51;;;;;;;;;;;;;;;20.58;44.89;99396.72;4961092;28;4166;-60
2023/03/08 04:35:21;;;;;;;;;;;;;;;20.59;45.05;99392.41;4942855;28;4183;-59
2023/03/08 04:37:51;;;;;;;;;;;;;;;20.53;45.06;99392.28;4935883;28;4954;-60
2023/03/08 04:40:20;;;;;;;;;;;;;;;20.49;45.00;99382.13;4944712;28;4230;-59
2023/03/08 04:42:52;;;;;;;;;;;;;;;20.55;44.51;99380.78;4951194;28;4231;-60
2023/03/08 04:45:24;;;;;;;;;;;;;;;20.58;44.75;99383.06;4956179;28;4214;-59
2023/03/08 04:47:53;;;;;;;;;;;;;;;20.61;45.06;99390.31;4937627;28;3931;-60
2023/03/08 04:50:20;;;;;;;;;;;;;;;20.62;45.30;99388.19;4954017;28;4212;-60
2023/03/08 04:52:46;;;;;;;;;;;;;;;20.63;45.35;99389.63;4953121;28;4223;-60
2023/03/08 04:55:13;;;;;;;;;;;;;;;20.64;45.50;99379.63;4946730;28;4104;-60
2023/03/08 04:57:39;;;;;;;;;;;;;;;20.63;45.51;99383.88;4947037;28;5388;-60
2023/03/08 05:00:06;;;;;;;;;;;;;;;20.62;45.40;99385.31;4958237;28;5267;-59
2023/03/08 05:02:36;;;;;;;;;;;;;;;20.62;45.50;99383.16;4942210;28;4145;-60
2023/03/08 05:05:05;;;;;;;;;;;;;;;20.63;45.67;99386.75;4947372;28;4038;-60
2023/03/08 05:07:31;;;;;;;;;;;;;;;20.62;45.81;99382.44;4962032;28;4147;-59
2023/03/08 05:09:59;;;;;;;;;;;;;;;20.61;45.76;99396.06;4948491;28;4146;-60
2023/03/08 05:12:26;;;;;;;;;;;;;;;20.60;45.78;99397.50;4940910;28;4045;-60
2023/03/08 05:14:56;;;;;;;;;;;;;;;20.60;45.90;99396.78;4952682;28;4132;-59
2023/03/08 05:17:24;;;;;;;;;;;;;;;20.59;45.81;99392.41;4947632;28;4149;-59
2023/03/08 05:19:51;;;;;;;;;;;;;;;20.57;45.73;99401.00;4946751;28;4239;-59
2023/03/08 05:22:21;;;;;;;;;;;;;;;20.57;45.98;99403.88;4948201;28;5462;-60
2023/03/08 05:24:49;;;;;;;;;;;;;;;20.57;45.77;99403.88;4936783;28;4144;-60
2023/03/08 05:27:16;;;;;;;;;;;;;;;20.55;45.96;99398.81;4949284;28;4636;-59
2023/03/08 05:29:44;;;;;;;;;;;;;;;20.57;45.99;99407.50;4953854;28;4038;-59
2023/03/08 05:32:11;;;;;;;;;;;;;;;20.58;45.86;99402.47;4950130;28;4224;-60
2023/03/08 05:34:38;;;;;;;;;;;;;;;20.57;46.12;99398.13;4936003;28;4363;-60
2023/03/08 05:37:08;;;;;;;;;;;;;;;20.60;45.87;99411.16;4944663;28;4254;-59
2023/03/08 05:39:36;;;;;;;;;;;;;;;20.61;45.90;99409.72;4949688;28;6520;-59
2023/03/08 05:42:19;;;;;;;;;;;;;;;20.61;46.34;99410.44;4963231;28;4297;-60
2023/03/08 05:44:46;;;;;;;;;;;;;;;20.61;46.08;99413.31;4948476;28;4098;-59
2023/03/08 05:47:16;;;;;;;;;;;;;;;20.62;46.07;99411.19;4938502;28;5211;-60
2023/03/08 05:49:43;;;;;;;;;;;;;;;20.63;45.98;99412.66;4959092;28;5239;-59
2023/03/08 05:52:10;;;;;;;;;;;;;;;20.62;46.11;99411.94;4934451;29;4156;-59
2023/03/08 05:54:38;;;;;;;;;;;;;;;20.62;45.95;99417.69;4930914;29;4132;-60
2023/03/08 05:57:08;;;;;;;;;;;;;;;20.62;46.06;99411.19;4921226;29;5311;-59
2023/03/08 05:59:36;;;;;;;;;;;;;;;20.62;46.16;99428.47;4917970;28;4142;-60
2023/03/08 06:02:03;;;;;;;;;;;;;;;20.62;46.00;99429.19;4922110;29;4222;-60
2023/03/08 06:04:35;;;;;;;;;;;;;;;20.61;46.04;99421.94;4920945;29;4377;-60
2023/03/08 06:07:01;;;;;;;;;;;;;;;20.60;45.89;99429.13;4932398;29;4057;-60
2023/03/08 06:09:33;;;;;;;;;;;;;;;20.60;45.91;99414.03;4936941;28;4035;-60
2023/03/08 06:12:00;;;;;;;;;;;;;;;20.58;46.13;99422.59;4945654;29;5391;-60
2023/03/08 06:14:27;;;;;;;;;;;;;;;20.58;46.04;99425.47;4918241;29;5499;-60
2023/03/08 06:16:55;;;;;;;;;;;;;;;20.58;45.97;99431.22;4917063;29;5430;-60
2023/03/08 06:19:24;;;;;;;;;;;;;;;20.57;46.04;99432.63;4930341;28;4102;-59
2023/03/08 06:21:52;;;;;;;;;;;;;;;20.56;45.86;99429.03;4931749;29;5436;-60
2023/03/08 06:24:19;;;;;;;;;;;;;;;20.57;45.88;99432.63;4947239;28;4340;-60
2023/03/08 06:26:45;;;;;;;;;;;;;;;20.57;45.92;99435.50;4919379;29;4543;-59
2023/03/08 06:29:13;;;;;;;;;;;;;;;20.57;45.92;99432.63;4932326;29;4172;-60
2023/03/08 06:31:40;;;;;;;;;;;;;;;20.57;45.91;99433.38;4934941;28;4195;-60
2023/03/08 06:34:06;;;;;;;;;;;;;;;20.59;46.03;99441.31;4934297;28;4238;-59
2023/03/08 06:36:33;;;;;;;;;;;;;;;20.58;45.86;99443.47;4918176;29;4141;-60
2023/03/08 06:38:59;;;;;;;;;;;;;;;20.60;46.13;99442.78;4935303;28;4226;-60
2023/03/08 06:41:28;;;;;;;;;;;;;;;20.61;46.01;99438.47;4935518;29;4012;-60
2023/03/08 06:43:56;;;;;;;;;;;;;;;20.61;45.96;99435.59;4939244;28;4187;-59
2023/03/08 06:46:23;;;;;;;;;;;;;;;20.61;45.81;99432.72;4929570;29;4029;-59
2023/03/08 06:48:49;;;;;;;;;;;;;;;20.62;45.90;99428.47;4942444;29;5377;-60
2023/03/08 06:51:16;;;;;;;;;;;;;;;20.62;46.03;99434.94;4937356;28;5310;-60
2023/03/08 06:53:43;;;;;;;;;;;;;;;20.62;45.93;99428.47;4943994;28;5601;-60
2023/03/08 06:56:11;;;;;;;;;;;;;;;20.62;46.05;99429.19;4949093;28;4212;-60
2023/03/08 06:58:38;;;;;;;;;;;;;;;20.61;45.96;99416.19;4939209;28;4241;-60
2023/03/08 07:01:05;;;;;;;;;;;;;;;20.62;45.98;99416.94;4958550;28;4220;-59
2023/03/08 07:03:31;;;;;;;;;;;;;;;20.60;45.84;99426.25;4957248;28;4156;-60
2023/03/08 07:05:58;;;;;;;;;;;;;;;20.60;45.84;99414.03;4953522;28;5499;-59
2023/03/08 07:08:25;;;;;;;;;;;;;;;20.60;45.83;99420.50;4958934;28;5232;-59
2023/03/08 07:10:51;;;;;;;;;;;;;;;20.59;45.78;99426.94;4957849;28;4151;-59
2023/03/08 07:13:17;;;;;;;;;;;;;;;20.59;45.87;99429.81;4958133;28;4147;-59
2023/03/08 07:15:44;;;;;;;;;;;;;;;20.59;45.80;99421.94;4958696;28;5414;-60
2023/03/08 07:18:10;;;;;;;;;;;;;;;20.60;45.71;99431.28;4948163;28;4053;-60
2023/03/08 07:20:36;;;;;;;;;;;;;;;20.61;45.78;99426.97;4957373;28;4159;-60
2023/03/08 07:23:03;;;;;;;;;;;;;;;20.61;45.82;99429.84;4957877;28;4223;-60
2023/03/08 07:25:29;;;;;;;;;;;;;;;20.61;45.77;99418.34;4953145;28;4913;-60
2023/03/08 07:27:57;;;;;;;;;;;;;;;20.61;45.73;99426.97;4965177;28;4249;-60
2023/03/08 07:30:23;;;;;;;;;;;;;;;20.61;45.69;99427.69;4956685;28;5395;-60
2023/03/08 07:32:51;;;;;;;;;;;;;;;20.61;45.93;99430.59;4954776;28;4292;-60
2023/03/08 07:35:17;;;;;;;;;;;;;;;20.60;45.77;99437.03;4959155;28;4170;-60
2023/03/08 07:37:44;;;;;;;;;;;;;;;20.61;45.72;99439.22;4954110;28;4040;-60
2023/03/08 07:40:11;;;;;;;;;;;;;;;20.60;45.71;99434.16;4954986;28;5497;-60
2023/03/08 07:42:37;;;;;;;;;;;;;;;20.60;45.71;99437.75;4952765;28;5254;-60
2023/03/08 07:45:15;;;;;;;;;;;;;;;20.60;45.66;99437.03;4938160;28;5277;-61
2023/03/08 07:47:42;;;;;;;;;;;;;;;20.60;45.80;99437.75;4955522;28;5269;-60
2023/03/08 07:50:08;;;;;;;;;;;;;;;20.62;45.67;99439.97;4956408;28;4446;-60
2023/03/08 07:52:35;;;;;;;;;;;;;;;20.63;45.57;99429.91;4955198;28;4605;-61
2023/03/08 07:55:01;;;;;;;;;;;;;;;20.63;45.66;99432.78;4959283;28;4272;-60
2023/03/08 07:57:28;;;;;;;;;;;;;;;20.63;45.70;99432.78;4956419;28;4124;-60
2023/03/08 07:59:54;;;;;;;;;;;;;;;20.63;45.72;99441.41;4955384;28;5288;-60
2023/03/08 08:02:20;;;;;;;;;;;;;;;20.63;45.74;99436.38;4961154;28;5181;-60
2023/03/08 08:04:47;;;;;;;;;;;;;;;20.62;45.55;99434.94;4959709;28;4168;-60
2023/03/08 08:07:14;;;;;;;;;;;;;;;20.62;45.66;99434.22;4955532;28;4394;-60
2023/03/08 08:09:40;;;;;;;;;;;;;;;20.61;45.79;99426.97;4941342;28;4079;-60
2023/03/08 08:12:06;;;;;;;;;;;;;;;20.61;45.62;99426.97;4955077;28;4100;-60
2023/03/08 08:14:33;;;;;;;;;;;;;;;20.60;45.62;99431.28;4958644;28;5291;-60
2023/03/08 08:16:59;;;;;;;;;;;;;;;20.61;45.58;99426.97;4953121;28;4236;-59
2023/03/08 08:19:26;;;;;;;;;;;;;;;20.62;45.83;99432.06;4956317;28;4237;-60
2023/03/08 08:21:52;;;;;;;;;;;;;;;20.12;41.20;99423.66;4958266;28;3982;-62
2023/03/08 08:24:18;;;;;;;;;;;;;;;19.27;38.11;99431.47;4945069;28;4194;-59
2023/03/08 08:26:45;;;;;;;;;;;;;;;19.83;40.45;99430.84;4953256;28;5284;-59
2023/03/08 08:29:11;;;;;;;;;;;;;;;20.18;42.19;99428.81;4956033;28;4297;-58
2023/03/08 08:31:37;;;;;;;;;;;;;;;20.37;42.49;99433.59;4958020;28;4157;-59
2023/03/08 08:34:04;;;;;;;;;;;;;;;20.46;42.90;99426.63;4957842;28;4240;-59
2023/03/08 08:36:30;;;;;;;;;;;;;;;20.61;43.19;99421.94;4956612;28;4130;-62
2023/03/08 08:38:57;;;;;;;;;;;;;;;20.58;43.42;99422.59;4955136;28;4204;-61
2023/03/08 08:41:23;;;;;;;;;;;;;;;20.55;43.63;99418.19;4954931;28;4199;-61
2023/03/08 08:43:49;;;;;;;;;;;;;;;20.56;43.63;99402.41;4957716;28;6383;-61
2023/03/08 08:46:16;;;;;;;;;;;;;;;20.58;43.63;99405.34;4956646;28;4202;-61
2023/03/08 08:48:42;;;;;;;;;;;;;;;20.57;43.63;99407.50;4954662;28;4192;-61
2023/03/08 08:51:10;;;;;;;;;;;;;;;20.58;43.86;99400.31;4956842;28;4266;-61
2023/03/08 08:53:36;;;;;;;;;;;;;;;20.59;43.89;99398.16;4956497;28;4310;-62
2023/03/08 08:56:12;;;;;;;;;;;;;;;20.61;43.84;99398.22;4955097;28;4253;-61
2023/03/08 08:58:51;;;;;;;;;;;;;;;20.62;44.04;99388.19;4941939;28;4171;-62
2023/03/08 09:01:18;;;;;;;;;;;;;;;20.64;43.75;99391.13;4955580;28;4203;-60
2023/03/08 09:03:45;;;;;;;;;;;;;;;20.63;44.00;99392.50;4952773;28;4151;-61
2023/03/08 09:06:12;;;;;;;;;;;;;;;20.75;43.68;99389.91;4953833;28;4222;-60
2023/03/08 09:08:38;;;;;;;;;;;;;;;20.79;43.89;99386.38;4953094;28;4237;-60
2023/03/08 09:11:05;;;;;;;;;;;;;;;20.79;44.11;99387.09;4956971;28;4198;-62
2023/03/08 09:13:31;;;;;;;;;;;;;;;20.75;44.26;99386.28;4954761;28;4110;-62
2023/03/08 09:15:58;;;;;;;;;;;;;;;20.72;44.19;99391.28;4956380;28;4150;-62
2023/03/08 09:18:24;;;;;;;;;;;;;;;20.70;44.21;99389.06;4957700;28;4156;-62
2023/03/08 09:20:50;;;;;;;;;;;;;;;20.68;44.30;99383.31;4954497;28;5411;-62
2023/03/08 09:23:17;;;;;;;;;;;;;;;20.70;44.34;99391.22;4953731;28;5309;-62
2023/03/08 09:25:43;;;;;;;;;;;;;;;20.69;44.48;99389.78;4959231;28;5662;-62
2023/03/08 09:28:10;;;;;;;;;;;;;;;20.68;44.40;99383.31;4959245;28;4170;-62
2023/03/08 09:30:36;;;;;;;;;;;;;;;20.67;44.37;99381.84;4962535;28;4130;-62
2023/03/08 09:33:03;;;;;;;;;;;;;;;20.67;44.44;99381.09;4960339;28;4603;-62
2023/03/08 09:35:29;;;;;;;;;;;;;;;20.68;44.43;99382.56;4961120;28;4163;-62
2023/03/08 09:37:57;;;;;;;;;;;;;;;20.68;44.43;99382.56;4959443;28;4120;-62
2023/03/08 09:40:24;;;;;;;;;;;;;;;20.68;44.46;99373.94;4951769;28;4044;-62
2023/03/08 09:42:51;;;;;;;;;;;;;;;20.69;44.48;99369.66;4959367;28;5298;-62
2023/03/08 09:45:27;;;;;;;;;;;;;;;20.70;44.73;99374.69;4959445;28;4203;-62
2023/03/08 09:47:56;;;;;;;;;;;;;;;20.73;44.55;99375.50;4958004;28;4120;-62
2023/03/08 09:50:35;;;;;;;;;;;;;;;20.74;44.46;99371.19;4943591;28;3996;-61
2023/03/08 09:53:18;;;;;;;;;;;;;;;20.75;44.68;99361.13;4959546;28;4230;-61
2023/03/08 09:55:46;;;;;;;;;;;;;;;20.76;44.76;99353.25;4957810;28;5237;-62
2023/03/08 09:58:15;;;;;;;;;;;;;;;20.78;44.61;99359.78;4958194;28;4276;-61
2023/03/08 10:00:41;;;;;;;;;;;;;;;20.60;43.64;99353.63;4942064;28;4189;-62
2023/03/08 10:03:13;;;;;;;;;;;;;;;20.08;42.48;99352.44;4936113;28;4618;-63
2023/03/08 10:05:45;;;;;;;;;;;;;;;20.32;43.65;99340.06;4943189;28;4657;-64
2023/03/08 10:08:30;;;;;;;;;;;;;;;20.52;43.78;99336.91;4944209;28;4186;-63
2023/03/08 10:10:59;;;;;;;;;;;;;;;20.63;43.15;99343.63;4959825;28;5198;-64
2023/03/08 10:13:32;;;;;;;;;;;;;;;20.68;43.58;99342.28;4947634;28;4205;-64
2023/03/08 10:16:04;;;;;;;;;;;;;;;20.72;43.93;99345.25;4957909;28;5197;-63
2023/03/08 10:18:34;;;;;;;;;;;;;;;20.73;44.01;99335.22;4957319;28;4209;-63
2023/03/08 10:21:01;;;;;;;;;;;;;;;20.73;44.04;99340.97;4943258;28;6260;-64
2023/03/08 10:23:28;;;;;;;;;;;;;;;20.71;44.09;99338.78;4954229;28;4156;-63
2023/03/08 10:25:54;;;;;;;;;;;;;;;20.72;44.18;99345.25;4958645;28;4127;-63
2023/03/08 10:28:21;;;;;;;;;;;;;;;20.73;44.09;99338.09;4954605;28;4223;-63
2023/03/08 10:30:49;;;;;;;;;;;;;;;20.74;44.11;99330.19;4955337;28;4114;-63
2023/03/08 10:33:16;;;;;;;;;;;;;;;20.72;44.18;99339.50;4953901;28;4142;-62
2023/03/08 10:35:52;;;;;;;;;;;;;;;20.72;44.40;99333.75;4953306;28;4170;-63
2023/03/08 10:38:18;;;;;;;;;;;;;;;20.73;44.47;99334.47;4956555;28;4498;-62
2023/03/08 10:40:45;;;;;;;;;;;;;;;20.71;44.36;99327.28;4952650;28;4576;-62
2023/03/08 10:43:17;;;;;;;;;;;;;;;20.74;44.52;99322.28;4953638;28;4153;-63
2023/03/08 10:45:43;;;;;;;;;;;;;;;20.74;44.33;99319.41;4947267;28;5383;-63
2023/03/08 10:48:17;;;;;;;;;;;;;;;20.75;44.44;99309.34;4954500;28;5288;-63
2023/03/08 10:50:43;;;;;;;;;;;;;;;20.76;44.38;99310.09;4941476;28;4203;-62
2023/03/08 10:53:14;;;;;;;;;;;;;;;20.77;44.36;99305.81;4957707;28;4060;-63
2023/03/08 10:55:44;;;;;;;;;;;;;;;20.76;44.62;99302.19;4948388;28;5272;-63
2023/03/08 10:58:22;;;;;;;;;;;;;;;20.77;44.43;99309.41;4949100;28;4189;-63
2023/03/08 11:00:51;;;;;;;;;;;;;;;20.77;44.46;99295.00;4957631;28;4491;-63
2023/03/08 11:03:18;;;;;;;;;;;;;;;20.77;44.45;99300.03;4954050;28;4098;-62
2023/03/08 11:06:00;;;;;;;;;;;;;;;20.76;44.60;99287.81;4955200;28;4348;-63
2023/03/08 11:08:27;;;;;;;;;;;;;;;20.75;44.60;99297.84;4954384;28;4154;-63
2023/03/08 11:11:01;;;;;;;;;;;;;;;20.75;44.45;99292.09;4957734;28;4191;-62
2023/03/08 11:13:30;;;;;;;;;;;;;;;20.75;44.39;99280.59;4954600;28;4056;-63
2023/03/08 11:16:05;;;;;;;;;;;;;;;20.78;44.53;99290.75;4955025;28;4239;-63
2023/03/08 11:18:40;;;;;;;;;;;;;;;20.81;44.48;99282.88;4957923;28;4212;-63
2023/03/08 11:21:17;;;;;;;;;;;;;;;20.81;44.46;99272.09;4957072;28;4121;-63
2023/03/08 11:23:53;;;;;;;;;;;;;;;20.82;44.46;99276.44;4961961;28;4099;-62
2023/03/08 11:26:28;;;;;;;;;;;;;;;20.82;44.67;99267.81;4940930;28;4215;-62
2023/03/08 11:29:01;;;;;;;;;;;;;;;20.82;44.78;99261.31;4946347;28;5398;-62
2023/03/08 11:31:34;;;;;;;;;;;;;;;20.83;44.98;99263.50;4942541;28;4133;-63
2023/03/08 11:34:19;;;;;;;;;;;;;;;20.82;44.83;99252.69;4951470;28;4118;-62
2023/03/08 11:36:48;;;;;;;;;;;;;;;20.80;44.88;99247.63;4951502;28;4047;-62
2023/03/08 11:39:23;;;;;;;;;;;;;;;20.80;45.38;99247.63;4946125;28;4302;-62
2023/03/08 11:41:55;;;;;;;;;;;;;;;20.80;45.36;99247.63;4956359;28;4303;-62
2023/03/08 11:44:26;;;;;;;;;;;;;;;20.82;45.27;99238.28;4941009;28;4155;-62
2023/03/08 11:47:10;;;;;;;;;;;;;;;20.82;45.70;99233.28;4934091;28;4019;-63
2023/03/08 11:49:40;;;;;;;;;;;;;;;20.84;46.13;99233.31;4942824;28;4264;-63
2023/03/08 11:52:19;;;;;;;;;;;;;;;20.83;45.94;99228.25;4952122;28;4267;-63
2023/03/08 11:54:51;;;;;;;;;;;;;;;20.85;46.00;99231.91;4953992;28;4385;-63
2023/03/08 11:57:18;;;;;;;;;;;;;;;20.83;45.88;99220.34;4937993;28;5285;-64
2023/03/08 11:59:49;;;;;;;;;;;;;;;20.71;45.93;99223.00;4955140;28;4267;-63
2023/03/08 12:02:19;;;;;;;;;;;;;;;20.59;45.71;99211.25;4945853;28;4198;-63
2023/03/08 12:04:54;;;;;;;;;;;;;;;20.47;44.94;99203.09;4937413;28;4326;-63
2023/03/08 12:07:22;;;;;;;;;;;;;;;20.60;44.94;99201.22;4941541;28;4185;-63
2023/03/08 12:09:58;;;;;;;;;;;;;;;20.67;44.56;99194.88;4957171;28;4174;-63
2023/03/08 12:12:34;;;;;;;;;;;;;;;20.74;44.98;99192.84;4944985;28;4199;-63
2023/03/08 12:15:04;;;;;;;;;;;;;;;20.68;44.89;99189.84;4954937;28;4193;-59
2023/03/08 12:17:33;;;;;;;;;;;;;;;20.67;44.35;99188.41;4958312;28;4203;-62
2023/03/08 12:19:59;;;;;;;;;;;;;;;20.72;44.53;99192.81;4940699;28;6383;-62
2023/03/08 12:22:38;;;;;;;;;;;;;;;20.76;44.39;99190.03;4957163;28;4120;-62
2023/03/08 12:25:19;;;;;;;;;;;;;;;20.81;44.37;99185.78;4958203;28;4512;-62
2023/03/08 12:28:04;;;;;;;;;;;;;;;20.80;44.92;99187.22;4959540;28;4173;-63
2023/03/08 12:30:31;;;;;;;;;;;;;;;20.83;44.65;99182.94;4959226;28;4119;-62
2023/03/08 12:32:58;;;;;;;;;;;;;;;20.85;44.49;99183.00;4957491;28;5136;-62
2023/03/08 12:35:26;;;;;;;;;;;;;;;20.85;45.25;99180.13;4956761;28;5031;-62
2023/03/08 12:37:54;;;;;;;;;;;;;;;20.84;45.38;99184.41;4957940;28;4136;-63
2023/03/08 12:40:35;;;;;;;;;;;;;;;20.85;45.51;99177.25;4956931;28;4026;-62
2023/03/08 12:43:02;;;;;;;;;;;;;;;20.83;45.23;99177.19;4955037;28;5192;-62
2023/03/08 12:45:29;;;;;;;;;;;;;;;20.85;45.50;99174.34;4957918;28;4170;-62
2023/03/08 12:48:00;;;;;;;;;;;;;;;20.83;45.64;99182.94;4952845;28;4165;-62
2023/03/08 12:50:27;;;;;;;;;;;;;;;20.83;45.67;99171.44;4957601;28;4088;-62
2023/03/08 12:52:54;;;;;;;;;;;;;;;20.83;45.93;99165.69;4955212;28;4913;-63
2023/03/08 12:55:30;;;;;;;;;;;;;;;20.82;46.22;99164.25;4944495;28;4045;-62
2023/03/08 12:58:00;;;;;;;;;;;;;;;20.83;46.12;99165.69;4954992;28;5254;-62
2023/03/08 13:00:35;;;;;;;;;;;;;;;20.85;46.43;99162.84;4950282;28;4060;-62
2023/03/08 13:03:03;;;;;;;;;;;;;;;20.84;46.54;99164.25;4952566;28;4163;-62
2023/03/08 13:05:31;;;;;;;;;;;;;;;20.86;47.04;99164.28;4958219;28;4200;-63